createdAt,value
2019-03-23T00:00:43.640Z,27.70
2019-03-23T00:03:16.207Z,27.70
2019-03-23T00:05:48.825Z,27.60
2019-03-23T00:08:21.365Z,27.60
2019-03-23T00:10:54.106Z,27.60
2019-03-23T00:13:26.630Z,27.50
2019-03-23T00:15:59.326Z,27.50
2019-03-23T00:18:31.910Z,27.40
2019-03-23T00:21:04.773Z,27.30
2019-03-23T00:23:37.332Z,27.20
2019-03-23T00:26:10.044Z,27.10
2019-03-23T00:28:42.834Z,26.90
2019-03-23T00:31:15.385Z,26.80
2019-03-23T00:33:48.010Z,26.70
2019-03-23T00:36:20.714Z,26.70
2019-03-23T00:38:53.286Z,26.60
2019-03-23T00:41:26.131Z,26.60
2019-03-23T00:43:58.838Z,26.50
2019-03-23T00:46:31.489Z,26.60
2019-03-23T00:49:04.499Z,26.60
2019-03-23T00:51:37.207Z,26.60
2019-03-23T00:54:09.783Z,26.70
2019-03-23T00:56:42.397Z,26.80
2019-03-23T00:59:15.510Z,26.90
2019-03-23T01:01:48.109Z,26.80
2019-03-23T01:04:20.662Z,26.80
2019-03-23T01:06:53.282Z,26.80
2019-03-23T01:09:25.839Z,26.70
2019-03-23T01:11:58.520Z,26.70
2019-03-23T01:14:31.121Z,26.70
2019-03-23T01:17:04.030Z,26.60
2019-03-23T01:19:36.774Z,26.70
2019-03-23T01:22:09.435Z,26.60
2019-03-23T01:24:42.006Z,26.60
2019-03-23T01:27:14.589Z,26.60
2019-03-23T01:29:47.168Z,26.60
2019-03-23T01:32:19.759Z,26.60
2019-03-23T01:34:52.313Z,26.60
2019-03-23T01:37:25.017Z,26.60
2019-03-23T01:39:57.553Z,26.70
2019-03-23T01:42:30.137Z,26.70
2019-03-23T01:45:02.714Z,26.70
2019-03-23T01:47:35.345Z,26.70
2019-03-23T01:50:09.150Z,26.60
2019-03-23T01:52:41.689Z,26.50
2019-03-23T01:55:14.263Z,26.50
2019-03-23T01:57:46.819Z,26.40
2019-03-23T02:00:20.028Z,26.30
2019-03-23T02:02:52.644Z,26.20
2019-03-23T02:05:25.330Z,26.20
2019-03-23T02:07:57.929Z,26.20
2019-03-23T02:10:30.476Z,26.20
2019-03-23T02:13:03.062Z,26.20
2019-03-23T02:15:36.004Z,26.20
2019-03-23T02:18:08.566Z,26.30
2019-03-23T02:20:41.289Z,26.30
2019-03-23T02:23:13.877Z,26.30
2019-03-23T02:25:46.475Z,26.30
2019-03-23T02:28:19.086Z,26.30
2019-03-23T02:30:51.987Z,26.30
2019-03-23T02:33:24.538Z,26.30
2019-03-23T02:35:57.138Z,26.30
2019-03-23T02:38:29.800Z,26.30
2019-03-23T02:41:02.389Z,26.30
2019-03-23T02:43:35.167Z,26.30
2019-03-23T02:46:07.726Z,26.30
2019-03-23T02:48:40.317Z,26.30
2019-03-23T02:51:13.161Z,26.30
2019-03-23T02:53:45.800Z,26.30
2019-03-23T02:56:18.390Z,26.30
2019-03-23T02:58:51.022Z,26.30
2019-03-23T03:01:24.139Z,26.30
2019-03-23T03:03:56.696Z,26.30
2019-03-23T03:06:29.241Z,26.30
2019-03-23T03:09:01.797Z,26.30
2019-03-23T03:11:35.908Z,26.30
2019-03-23T03:14:09.890Z,26.30
2019-03-23T03:16:43.803Z,26.30
2019-03-23T03:19:16.381Z,26.30
2019-03-23T03:21:49.088Z,26.30
2019-03-23T03:24:21.653Z,26.30
2019-03-23T03:26:54.240Z,26.30
2019-03-23T03:29:26.817Z,26.30
2019-03-23T03:31:59.419Z,26.30
2019-03-23T03:34:31.966Z,26.20
2019-03-23T03:37:04.504Z,26.20
2019-03-23T03:39:37.118Z,26.30
2019-03-23T03:42:09.871Z,26.30
2019-03-23T03:44:42.471Z,26.40
2019-03-23T03:47:15.005Z,26.40
2019-03-23T03:49:47.589Z,26.40
2019-03-23T03:52:20.472Z,26.50
2019-03-23T03:54:54.307Z,26.50
2019-03-23T03:57:26.867Z,26.40
2019-03-23T03:59:59.500Z,26.40
2019-03-23T04:02:32.442Z,26.50
2019-03-23T04:05:05.217Z,26.40
2019-03-23T04:07:37.847Z,26.40
2019-03-23T04:10:11.578Z,26.30
2019-03-23T04:12:44.167Z,26.30
2019-03-23T04:15:17.966Z,26.30
2019-03-23T04:17:50.657Z,26.30
2019-03-23T04:20:23.241Z,26.30
2019-03-23T04:22:55.814Z,26.20
2019-03-23T04:25:28.387Z,26.20
2019-03-23T04:28:00.936Z,26.10
2019-03-23T04:30:34.608Z,26.00
2019-03-23T04:33:07.138Z,25.90
2019-03-23T04:35:39.728Z,26.00
2019-03-23T04:38:22.204Z,26.00
2019-03-23T04:40:46.589Z,25.90
2019-03-23T04:43:19.154Z,25.90
2019-03-23T04:45:51.747Z,25.90
2019-03-23T04:48:24.590Z,25.90
2019-03-23T04:50:57.199Z,25.90
2019-03-23T04:53:29.734Z,25.80
2019-03-23T04:56:02.357Z,25.80
2019-03-23T04:58:34.937Z,25.70
2019-03-23T05:01:07.552Z,25.70
2019-03-23T05:03:40.358Z,25.50
2019-03-23T05:06:12.944Z,25.60
2019-03-23T05:08:45.505Z,25.50
2019-03-23T05:11:18.255Z,25.50
2019-03-23T05:13:50.892Z,25.50
2019-03-23T05:16:23.425Z,25.50
2019-03-23T05:18:56.069Z,25.50
2019-03-23T05:21:28.640Z,25.60
2019-03-23T05:24:01.255Z,25.60
2019-03-23T05:26:33.814Z,25.70
2019-03-23T05:29:06.452Z,25.60
2019-03-23T05:31:40.187Z,25.70
2019-03-23T05:34:12.994Z,25.60
2019-03-23T05:36:45.550Z,25.50
2019-03-23T05:39:18.130Z,25.50
2019-03-23T05:41:50.697Z,25.50
2019-03-23T05:44:23.414Z,25.40
2019-03-23T05:46:55.992Z,25.40
2019-03-23T05:49:28.574Z,25.40
2019-03-23T05:52:01.574Z,25.50
2019-03-23T05:54:34.166Z,25.60
2019-03-23T05:57:06.773Z,25.50
2019-03-23T05:59:39.338Z,25.60
2019-03-23T06:02:11.926Z,25.70
2019-03-23T06:04:45.954Z,25.80
2019-03-23T06:07:18.493Z,25.70
2019-03-23T06:09:51.422Z,25.70
2019-03-23T06:12:23.974Z,25.50
2019-03-23T06:14:56.588Z,25.60
2019-03-23T06:17:29.167Z,25.70
2019-03-23T06:20:02.023Z,25.80
2019-03-23T06:22:34.686Z,25.50
2019-03-23T06:25:08.486Z,25.70
2019-03-23T06:27:41.090Z,26.00
2019-03-23T06:30:13.685Z,25.40
2019-03-23T06:32:46.389Z,25.10
2019-03-23T06:35:19.201Z,25.30
2019-03-23T06:37:51.946Z,25.20
2019-03-23T06:40:24.546Z,25.30
2019-03-23T06:42:59.986Z,25.60
2019-03-23T06:45:31.442Z,26.10
2019-03-23T06:48:04.046Z,26.50
2019-03-23T06:50:36.614Z,26.60
2019-03-23T06:53:09.269Z,26.90
2019-03-23T06:55:43.206Z,27.20
2019-03-23T06:58:15.803Z,27.20
2019-03-23T07:00:48.400Z,27.40
2019-03-23T07:03:20.993Z,26.90
2019-03-23T07:05:53.752Z,26.60
2019-03-23T07:08:31.812Z,26.80
2019-03-23T07:11:00.660Z,27.20
2019-03-23T07:13:33.325Z,27.40
2019-03-23T07:16:05.926Z,27.60
2019-03-23T07:18:38.530Z,27.80
2019-03-23T07:21:11.407Z,27.90
2019-03-23T07:23:44.019Z,27.80
2019-03-23T07:26:16.665Z,28.00
2019-03-23T07:28:49.320Z,28.30
2019-03-23T07:31:21.876Z,28.50
2019-03-23T07:33:54.520Z,28.40
2019-03-23T07:36:27.355Z,28.00
2019-03-23T07:38:59.987Z,28.10
2019-03-23T07:41:32.545Z,28.60
2019-03-23T07:44:05.313Z,28.80
2019-03-23T07:46:38.221Z,28.90
2019-03-23T07:49:10.871Z,28.90
2019-03-23T07:51:43.646Z,29.40
2019-03-23T07:54:16.293Z,29.90
2019-03-23T07:56:49.167Z,30.30
2019-03-23T07:59:21.768Z,30.40
2019-03-23T08:01:54.342Z,30.00
2019-03-23T08:04:27.008Z,30.10
2019-03-23T08:06:59.973Z,30.00
2019-03-23T08:09:37.611Z,30.00
2019-03-23T08:12:07.022Z,29.50
2019-03-23T08:14:39.689Z,29.10
2019-03-23T08:17:12.307Z,28.60
2019-03-23T08:19:44.931Z,28.10
2019-03-23T08:22:17.713Z,28.40
2019-03-23T08:24:50.355Z,28.90
2019-03-23T08:27:22.954Z,29.30
2019-03-23T08:29:55.592Z,29.60
2019-03-23T08:32:28.231Z,29.50
2019-03-23T08:35:00.919Z,29.70
2019-03-23T08:37:33.573Z,29.90
2019-03-23T08:40:07.118Z,29.60
2019-03-23T08:42:39.737Z,29.70
2019-03-23T08:45:12.472Z,30.10
2019-03-23T08:47:46.139Z,30.30
2019-03-23T08:50:18.858Z,30.30
2019-03-23T08:52:51.578Z,30.40
2019-03-23T08:55:24.242Z,30.50
2019-03-23T08:57:57.304Z,30.50
2019-03-23T09:00:29.860Z,30.50
2019-03-23T09:03:03.789Z,30.80
2019-03-23T09:05:37.158Z,30.80
2019-03-23T09:08:09.945Z,30.60
2019-03-23T09:10:42.597Z,30.50
2019-03-23T09:13:15.182Z,30.90
2019-03-23T09:15:47.849Z,31.00
2019-03-23T09:18:21.270Z,30.70
2019-03-23T09:20:53.884Z,30.20
2019-03-23T09:23:26.545Z,30.00
2019-03-23T09:25:59.105Z,29.60
2019-03-23T09:28:31.700Z,29.90
2019-03-23T09:31:04.300Z,30.10
2019-03-23T09:33:36.881Z,30.10
2019-03-23T09:36:09.501Z,30.20
2019-03-23T09:38:42.380Z,30.50
2019-03-23T09:41:15.045Z,30.50
2019-03-23T09:43:47.637Z,30.30
2019-03-23T09:46:20.334Z,30.50
2019-03-23T09:48:52.992Z,30.70
2019-03-23T09:51:25.610Z,30.70
2019-03-23T09:53:58.652Z,31.40
2019-03-23T09:56:31.263Z,31.30
2019-03-23T09:59:03.967Z,30.90
2019-03-23T10:01:36.669Z,31.10
2019-03-23T10:04:09.269Z,31.30
2019-03-23T10:06:42.096Z,31.70
2019-03-23T10:09:15.071Z,31.60
2019-03-23T10:11:47.692Z,31.40
2019-03-23T10:14:20.406Z,32.00
2019-03-23T10:16:53.030Z,32.00
2019-03-23T10:19:25.703Z,31.80
2019-03-23T10:21:58.351Z,31.70
2019-03-23T10:24:31.271Z,32.00
2019-03-23T10:27:04.311Z,31.60
2019-03-23T10:29:37.212Z,31.70
2019-03-23T10:32:09.914Z,31.80
2019-03-23T10:34:42.641Z,31.60
2019-03-23T10:37:15.414Z,31.40
2019-03-23T10:39:48.329Z,31.70
2019-03-23T10:42:21.003Z,31.90
2019-03-23T10:44:53.618Z,31.70
2019-03-23T10:47:26.384Z,31.90
2019-03-23T10:49:59.074Z,31.70
2019-03-23T10:52:31.718Z,31.70
2019-03-23T10:55:04.790Z,31.80
2019-03-23T10:57:37.418Z,31.70
2019-03-23T11:00:11.273Z,31.80
2019-03-23T11:02:44.501Z,31.80
2019-03-23T11:05:17.263Z,31.80
2019-03-23T11:07:49.921Z,31.80
2019-03-23T11:10:22.775Z,31.80
2019-03-23T11:12:55.521Z,31.90
2019-03-23T11:15:28.310Z,32.10
2019-03-23T11:18:00.913Z,31.90
2019-03-23T11:20:33.524Z,32.10
2019-03-23T11:23:06.191Z,32.10
2019-03-23T11:25:39.145Z,32.00
2019-03-23T11:28:11.903Z,31.80
2019-03-23T11:30:44.485Z,32.20
2019-03-23T11:33:17.074Z,32.20
2019-03-23T11:35:57.448Z,32.40
2019-03-23T11:38:24.048Z,32.30
2019-03-23T11:40:56.972Z,32.00
2019-03-23T11:43:29.594Z,32.10
2019-03-23T11:46:02.202Z,32.30
2019-03-23T11:48:34.811Z,32.10
2019-03-23T11:51:07.465Z,32.20
2019-03-23T11:53:40.029Z,32.10
2019-03-23T11:56:13.166Z,31.60
2019-03-23T11:58:45.744Z,32.00
2019-03-23T12:01:18.800Z,32.30
2019-03-23T12:03:51.592Z,32.10
2019-03-23T12:06:24.255Z,32.40
2019-03-23T12:08:56.886Z,32.50
2019-03-23T12:11:31.100Z,32.30
2019-03-23T12:14:03.830Z,32.20
2019-03-23T12:16:36.625Z,32.60
2019-03-23T12:19:19.916Z,32.90
2019-03-23T12:21:52.832Z,33.10
2019-03-23T12:24:25.510Z,33.00
2019-03-23T12:26:58.565Z,33.20
2019-03-23T12:29:31.339Z,33.00
2019-03-23T12:32:04.060Z,33.10
2019-03-23T12:34:36.760Z,33.20
2019-03-23T12:37:09.414Z,33.20
2019-03-23T12:39:42.134Z,33.20
2019-03-23T12:42:15.044Z,33.50
2019-03-23T12:44:47.806Z,33.50
2019-03-23T12:47:20.629Z,33.60
2019-03-23T12:49:53.334Z,33.40
2019-03-23T12:52:25.910Z,33.20
2019-03-23T12:54:58.525Z,33.10
2019-03-23T12:57:31.448Z,33.00
2019-03-23T13:00:04.102Z,33.40
2019-03-23T13:02:37.783Z,33.80
2019-03-23T13:05:10.917Z,34.50
2019-03-23T13:07:43.600Z,34.90
2019-03-23T13:10:17.658Z,35.50
2019-03-23T13:12:50.316Z,36.00
2019-03-23T13:15:22.924Z,36.30
2019-03-23T13:17:55.563Z,36.60
2019-03-23T13:20:28.151Z,37.20
2019-03-23T13:23:00.902Z,38.00
2019-03-23T13:25:33.503Z,38.40
2019-03-23T13:28:06.086Z,38.60
2019-03-23T13:30:38.711Z,39.30
2019-03-23T13:33:11.379Z,40.00
2019-03-23T13:35:43.997Z,40.60
2019-03-23T13:38:16.646Z,41.00
2019-03-23T13:40:49.260Z,41.50
2019-03-23T13:43:21.953Z,41.80
2019-03-23T13:45:54.638Z,41.90
2019-03-23T13:48:27.415Z,41.70
2019-03-23T13:51:00.116Z,41.70
2019-03-23T13:53:32.885Z,41.80
2019-03-23T13:56:05.571Z,41.90
2019-03-23T13:58:38.699Z,42.30
2019-03-23T14:01:11.830Z,42.40
2019-03-23T14:03:44.621Z,43.10
2019-03-23T14:06:17.426Z,43.50
2019-03-23T14:08:50.086Z,44.00
2019-03-23T14:11:22.813Z,44.10
2019-03-23T14:13:55.594Z,44.00
2019-03-23T14:16:28.354Z,43.90
2019-03-23T14:19:01.033Z,44.20
2019-03-23T14:21:33.705Z,44.50
2019-03-23T14:24:06.361Z,44.90
2019-03-23T14:26:51.760Z,44.90
2019-03-23T14:29:24.378Z,45.40
2019-03-23T14:31:57.109Z,45.60
2019-03-23T14:34:29.959Z,45.60
2019-03-23T14:37:02.773Z,45.90
2019-03-23T14:39:35.497Z,45.90
2019-03-23T14:42:08.136Z,45.70
2019-03-23T14:44:41.157Z,45.50
2019-03-23T14:47:14.109Z,45.40
2019-03-23T14:49:47.038Z,45.30
2019-03-23T14:52:19.688Z,45.40
2019-03-23T14:54:52.466Z,45.50
2019-03-23T14:57:25.224Z,45.40
2019-03-23T14:59:58.210Z,45.50
2019-03-23T15:02:30.969Z,45.30
2019-03-23T15:05:04.199Z,45.10
2019-03-23T15:07:37.047Z,45.30
2019-03-23T15:10:11.273Z,45.40
2019-03-23T15:12:44.000Z,45.30
2019-03-23T15:15:17.131Z,45.30
2019-03-23T15:17:49.890Z,45.30
2019-03-23T15:20:22.571Z,45.40
2019-03-23T15:22:55.325Z,45.00
2019-03-23T15:25:28.003Z,44.70
2019-03-23T15:28:00.629Z,44.60
2019-03-23T15:30:34.016Z,44.50
2019-03-23T15:33:06.763Z,44.30
2019-03-23T15:35:39.761Z,44.00
2019-03-23T15:38:12.974Z,43.70
2019-03-23T15:40:45.756Z,43.40
2019-03-23T15:43:18.535Z,43.30
2019-03-23T15:45:51.279Z,42.50
2019-03-23T15:48:24.157Z,42.00
2019-03-23T15:50:57.298Z,41.30
2019-03-23T15:53:30.193Z,40.40
2019-03-23T15:56:03.571Z,39.90
2019-03-23T15:58:36.242Z,39.30
2019-03-23T16:01:09.014Z,38.90
2019-03-23T16:03:41.820Z,38.50
2019-03-23T16:06:14.712Z,38.10
2019-03-23T16:08:47.372Z,37.70
2019-03-23T16:11:20.025Z,37.50
2019-03-23T16:13:52.665Z,37.30
2019-03-23T16:16:25.616Z,37.20
2019-03-23T16:18:58.286Z,37.10
2019-03-23T16:21:30.940Z,37.00
2019-03-23T16:24:03.590Z,36.90
2019-03-23T16:26:36.187Z,37.10
2019-03-23T16:29:09.743Z,37.00
2019-03-23T16:31:42.939Z,37.00
2019-03-23T16:34:15.640Z,37.00
2019-03-23T16:36:48.250Z,37.00
2019-03-23T16:39:20.937Z,37.00
2019-03-23T16:41:53.638Z,36.90
2019-03-23T16:44:26.304Z,36.80
2019-03-23T16:46:59.340Z,36.50
2019-03-23T16:49:32.161Z,36.40
2019-03-23T16:52:04.864Z,36.30
2019-03-23T16:54:37.577Z,36.30
2019-03-23T16:57:10.300Z,36.20
2019-03-23T16:59:42.982Z,36.20
2019-03-23T17:02:16.217Z,36.10
2019-03-23T17:04:48.886Z,36.10
2019-03-23T17:07:22.039Z,36.00
2019-03-23T17:09:54.893Z,35.90
2019-03-23T17:12:27.703Z,35.80
2019-03-23T17:15:00.386Z,35.70
2019-03-23T17:17:33.434Z,35.60
2019-03-23T17:20:08.126Z,35.50
2019-03-23T17:22:41.649Z,35.40
2019-03-23T17:25:14.392Z,35.20
2019-03-23T17:27:47.226Z,35.10
2019-03-23T17:30:19.946Z,35.10
2019-03-23T17:32:52.680Z,35.00
2019-03-23T17:35:25.943Z,34.80
2019-03-23T17:38:00.012Z,34.70
2019-03-23T17:40:32.834Z,34.60
2019-03-23T17:43:06.355Z,34.50
2019-03-23T17:45:39.360Z,34.50
2019-03-23T17:48:12.201Z,34.40
2019-03-23T17:50:44.968Z,34.30
2019-03-23T17:53:17.755Z,34.20
2019-03-23T17:55:50.431Z,34.20
2019-03-23T17:58:23.165Z,34.20
2019-03-23T18:00:55.803Z,34.10
2019-03-23T18:03:28.931Z,34.10
2019-03-23T18:06:01.614Z,34.00
2019-03-23T18:08:34.751Z,33.90
2019-03-23T18:11:07.438Z,33.90
2019-03-23T18:13:40.171Z,33.90
2019-03-23T18:16:12.880Z,33.90
2019-03-23T18:18:45.938Z,33.90
2019-03-23T18:21:18.917Z,33.80
2019-03-23T18:23:51.627Z,33.80
2019-03-23T18:26:24.405Z,33.70
2019-03-23T18:28:57.064Z,33.70
2019-03-23T18:31:29.744Z,33.60
2019-03-23T18:34:02.601Z,33.50
2019-03-23T18:36:35.394Z,33.50
2019-03-23T18:39:09.585Z,33.30
2019-03-23T18:41:42.436Z,33.30
2019-03-23T18:44:16.818Z,33.20
2019-03-23T18:46:49.827Z,33.00
2019-03-23T18:49:22.720Z,33.00
2019-03-23T18:51:55.398Z,32.90
2019-03-23T18:54:28.150Z,32.80
2019-03-23T18:57:00.857Z,32.80
2019-03-23T18:59:33.650Z,32.80
2019-03-23T19:02:06.458Z,32.80
2019-03-23T19:04:39.271Z,32.80
2019-03-23T19:07:11.943Z,32.80
2019-03-23T19:09:45.258Z,32.80
2019-03-23T19:12:18.222Z,32.80
2019-03-23T19:14:51.087Z,32.70
2019-03-23T19:17:24.051Z,32.70
2019-03-23T19:19:57.156Z,32.70
2019-03-23T19:22:30.731Z,32.70
2019-03-23T19:25:03.732Z,32.60
2019-03-23T19:27:36.638Z,32.60
2019-03-23T19:30:12.191Z,32.60
2019-03-23T19:32:44.919Z,32.50
2019-03-23T19:35:17.561Z,32.50
2019-03-23T19:37:50.415Z,32.50
2019-03-23T19:40:23.168Z,32.50
2019-03-23T19:42:56.739Z,32.30
2019-03-23T19:45:29.515Z,32.30
2019-03-23T19:48:02.225Z,32.30
2019-03-23T19:50:35.422Z,32.30
2019-03-23T19:53:08.227Z,32.30
2019-03-23T19:55:41.126Z,32.30
2019-03-23T19:58:14.898Z,32.30
2019-03-23T20:00:47.691Z,32.30
2019-03-23T20:03:20.654Z,32.30
2019-03-23T20:05:53.850Z,32.30
2019-03-23T20:08:26.596Z,32.20
2019-03-23T20:10:59.925Z,32.20
2019-03-23T20:13:32.868Z,32.30
2019-03-23T20:16:05.689Z,32.30
2019-03-23T20:18:38.780Z,32.30
2019-03-23T20:21:12.248Z,32.30
2019-03-23T20:23:45.119Z,32.30
2019-03-23T20:26:18.698Z,32.30
2019-03-23T20:28:51.689Z,32.20
2019-03-23T20:31:24.597Z,32.20
2019-03-23T20:33:57.410Z,32.20
2019-03-23T20:36:30.679Z,32.20
2019-03-23T20:39:05.580Z,32.20
2019-03-23T20:41:40.013Z,32.10
2019-03-23T20:44:13.131Z,32.00
2019-03-23T20:46:46.384Z,32.00
2019-03-23T20:49:20.329Z,31.90
2019-03-23T20:51:53.607Z,31.80
2019-03-23T20:54:26.798Z,31.80
2019-03-23T20:56:59.680Z,31.70
2019-03-23T20:59:32.831Z,31.60
2019-03-23T21:02:05.690Z,31.50
2019-03-23T21:04:38.543Z,31.50
2019-03-23T21:07:11.561Z,31.40
2019-03-23T21:09:44.720Z,31.30
2019-03-23T21:12:17.791Z,31.30
2019-03-23T21:14:50.737Z,31.10
2019-03-23T21:17:23.531Z,31.00
2019-03-23T21:19:56.246Z,30.50
2019-03-23T21:22:29.115Z,30.60
2019-03-23T21:25:01.918Z,30.50
2019-03-23T21:27:36.309Z,30.60
2019-03-23T21:30:12.129Z,30.70
2019-03-23T21:32:45.013Z,30.60
2019-03-23T21:35:17.826Z,30.80
2019-03-23T21:37:51.009Z,30.70
2019-03-23T21:40:23.938Z,30.80
2019-03-23T21:42:56.753Z,30.80
2019-03-23T21:45:29.512Z,31.10
2019-03-23T21:48:02.352Z,31.30
2019-03-23T21:50:35.385Z,31.30
2019-03-23T21:53:08.523Z,31.20
2019-03-23T21:55:41.473Z,31.00
2019-03-23T21:58:14.304Z,31.30
2019-03-23T22:00:47.339Z,31.10
2019-03-23T22:03:21.470Z,31.30
2019-03-23T22:05:54.227Z,31.30
2019-03-23T22:08:27.187Z,31.40
2019-03-23T22:11:01.338Z,31.50
2019-03-23T22:13:34.592Z,31.50
2019-03-23T22:16:07.313Z,31.40
2019-03-23T22:18:42.731Z,31.40
2019-03-23T22:21:15.513Z,31.50
2019-03-23T22:23:49.512Z,31.40
2019-03-23T22:26:22.284Z,31.30
2019-03-23T22:28:54.935Z,31.30
2019-03-23T22:31:27.709Z,31.30
2019-03-23T22:34:00.437Z,31.30
2019-03-23T22:36:33.029Z,31.20
2019-03-23T22:39:07.052Z,31.10
2019-03-23T22:41:39.699Z,31.20
2019-03-23T22:44:12.346Z,31.20
2019-03-23T22:46:45.069Z,31.20
2019-03-23T22:49:17.664Z,31.00
2019-03-23T22:51:50.305Z,30.70
2019-03-23T22:54:23.211Z,30.80
2019-03-23T22:56:55.962Z,30.80
2019-03-23T22:59:28.670Z,30.70
2019-03-23T23:02:01.296Z,30.40
2019-03-23T23:04:33.924Z,30.40
2019-03-23T23:07:06.616Z,30.40
2019-03-23T23:09:39.692Z,30.60
2019-03-23T23:12:12.379Z,30.50
2019-03-23T23:14:47.108Z,30.60
2019-03-23T23:17:19.779Z,30.40
2019-03-23T23:19:53.754Z,30.20
2019-03-23T23:22:26.628Z,30.30
2019-03-23T23:24:59.305Z,30.20
2019-03-23T23:27:31.984Z,30.30
2019-03-23T23:30:05.193Z,30.40
2019-03-23T23:32:38.042Z,30.40
2019-03-23T23:35:11.715Z,30.40
2019-03-23T23:37:44.330Z,30.60
2019-03-23T23:40:18.584Z,30.70
2019-03-23T23:42:51.285Z,30.80
2019-03-23T23:45:23.883Z,30.80
2019-03-23T23:47:56.500Z,30.80
2019-03-23T23:50:29.129Z,30.90
2019-03-23T23:53:01.716Z,30.70
2019-03-23T23:55:34.698Z,30.60
2019-03-23T23:58:07.462Z,30.50
